Time;durP1;ratioP1;P1;durP2;ratioP2;P2;SDS_P1;SDS_P2;PMS_P1;PMS_P2;Temp;Humidity;BMP_temperature;BMP_pressure;BME280_temperature;BME280_humidity;BME280_pressure;Samples;Min_cycle;Max_cycle;Signal;HPM_P1;HPM_P2
2023/06/06 00:01:49;;;;;;;11.23;8.13;;;18.20;92.00;;;;;;5005680;28;20205;-35
2023/06/06 00:04:18;;;;;;;12.50;8.25;;;18.20;91.80;;;;;;5016290;28;20236;-35
2023/06/06 00:06:47;;;;;;;10.27;8.02;;;18.20;92.10;;;;;;5018252;28;20261;-35
2023/06/06 00:09:15;;;;;;;11.65;8.30;;;18.20;92.10;;;;;;5019537;28;20227;-35
2023/06/06 00:11:48;;;;;;;10.77;9.18;;;18.10;92.40;;;;;;5001680;28;20215;-35
2023/06/06 00:14:18;;;;;;;10.18;8.45;;;18.00;92.30;;;;;;5016535;28;20229;-35
2023/06/06 00:16:49;;;;;;;12.18;8.73;;;18.00;92.20;;;;;;5018839;28;20205;-35
2023/06/06 00:19:20;;;;;;;10.90;7.60;;;17.90;92.10;;;;;;5016794;28;20792;-35
2023/06/06 00:21:52;;;;;;;15.00;9.13;;;17.90;92.40;;;;;;5014970;28;20508;-35
2023/06/06 00:24:22;;;;;;;10.18;8.60;;;17.90;92.30;;;;;;5005793;28;20263;-35
2023/06/06 00:26:51;;;;;;;11.40;8.13;;;17.80;92.40;;;;;;5014966;28;20428;-34
2023/06/06 00:29:23;;;;;;;10.63;8.32;;;17.80;92.50;;;;;;5007974;28;20209;-34
2023/06/06 00:31:52;;;;;;;11.23;8.43;;;17.80;92.50;;;;;;5004984;28;20278;-34
2023/06/06 00:34:20;;;;;;;9.82;8.35;;;17.80;92.60;;;;;;5015257;28;20598;-35
2023/06/06 00:36:49;;;;;;;9.40;7.75;;;17.70;92.70;;;;;;5014524;28;20209;-35
2023/06/06 00:39:16;;;;;;;11.45;8.80;;;17.70;92.40;;;;;;5004632;28;20647;-35
2023/06/06 00:41:47;;;;;;;9.85;8.00;;;17.60;92.50;;;;;;5002768;28;20236;-35
2023/06/06 00:44:14;;;;;;;11.25;8.52;;;17.50;92.30;;;;;;5007127;28;20304;-35
2023/06/06 00:46:47;;;;;;;12.23;9.45;;;17.50;92.60;;;;;;5007842;28;20217;-35
2023/06/06 00:49:18;;;;;;;14.45;8.80;;;17.50;92.80;;;;;;5007599;28;20645;-34
2023/06/06 00:51:49;;;;;;;13.73;9.32;;;17.40;92.60;;;;;;5008949;28;20197;-34
2023/06/06 00:54:20;;;;;;;12.48;8.60;;;17.40;92.80;;;;;;5009037;28;20304;-35
2023/06/06 00:56:53;;;;;;;13.15;9.00;;;17.30;92.40;;;;;;5012106;28;20221;-34
2023/06/06 00:59:27;;;;;;;13.23;9.02;;;17.30;92.60;;;;;;5011544;28;20215;-34
2023/06/06 01:01:58;;;;;;;11.25;8.73;;;17.30;92.50;;;;;;5006572;28;20283;-34
2023/06/06 01:04:27;;;;;;;11.70;9.02;;;17.20;92.90;;;;;;5009155;28;20228;-35
2023/06/06 01:06:57;;;;;;;10.85;8.68;;;17.20;93.20;;;;;;5009919;28;20729;-34
2023/06/06 01:09:26;;;;;;;14.75;9.52;;;17.20;92.80;;;;;;5010814;28;20216;-35
2023/06/06 01:12:26;;;;;;;11.07;8.63;;;17.10;93.00;;;;;;5013646;28;20629;-35
2023/06/06 01:15:24;;;;;;;10.30;8.60;;;17.10;93.40;;;;;;5008836;28;20196;-35
2023/06/06 01:17:52;;;;;;;12.80;9.13;;;17.10;93.20;;;;;;5006763;28;20358;-35
2023/06/06 01:20:23;;;;;;;12.00;9.57;;;17.00;93.30;;;;;;5010438;28;20230;-35
2023/06/06 01:22:56;;;;;;;13.48;9.77;;;17.00;92.90;;;;;;5008973;28;20598;-34
2023/06/06 01:25:25;;;;;;;12.18;9.10;;;17.00;92.80;;;;;;5011613;28;20838;-34
2023/06/06 01:27:54;;;;;;;10.95;8.77;;;17.00;92.80;;;;;;5007662;28;21022;-35
2023/06/06 01:30:27;;;;;;;13.27;9.68;;;16.90;92.80;;;;;;5008802;28;20285;-34
2023/06/06 01:33:33;;;;;;;12.30;8.70;;;16.90;93.10;;;;;;5007875;28;20505;-35
2023/06/06 01:36:06;;;;;;;13.00;9.45;;;16.90;93.40;;;;;;5004184;28;20717;-34
2023/06/06 01:38:50;;;;;;;11.77;8.88;;;16.80;93.30;;;;;;5011149;28;20316;-34
2023/06/06 01:41:22;;;;;;;12.82;9.77;;;16.80;93.10;;;;;;5007945;28;20228;-34
2023/06/06 01:43:54;;;;;;;15.90;9.73;;;16.80;92.90;;;;;;5012390;28;20323;-34
2023/06/06 01:46:26;;;;;;;13.70;9.43;;;16.80;93.20;;;;;;5013042;28;20228;-34
2023/06/06 01:48:55;;;;;;;11.40;9.30;;;16.70;93.10;;;;;;5011330;28;20753;-34
2023/06/06 01:51:28;;;;;;;10.95;8.25;;;16.70;92.90;;;;;;5012654;28;20663;-34
2023/06/06 01:53:58;;;;;;;12.98;9.55;;;16.70;92.80;;;;;;5016913;28;20296;-35
2023/06/06 01:56:26;;;;;;;12.27;8.35;;;16.70;92.80;;;;;;5013710;28;20241;-34
2023/06/06 01:58:55;;;;;;;13.82;9.80;;;16.60;93.00;;;;;;5005946;28;20217;-35
2023/06/06 02:01:26;;;;;;;11.70;9.00;;;16.60;92.70;;;;;;5010474;28;20330;-35
2023/06/06 02:03:55;;;;;;;13.57;9.45;;;16.60;92.60;;;;;;5010488;28;20644;-34
2023/06/06 02:06:27;;;;;;;10.48;8.52;;;16.60;92.90;;;;;;5022279;28;20718;-34
2023/06/06 02:08:59;;;;;;;14.23;9.55;;;16.60;93.10;;;;;;5008779;28;20216;-34
2023/06/06 02:11:31;;;;;;;13.65;8.60;;;16.60;92.80;;;;;;5013866;28;20255;-34
2023/06/06 02:14:02;;;;;;;13.13;8.93;;;16.60;92.70;;;;;;5014062;28;20221;-35
2023/06/06 02:16:31;;;;;;;12.02;9.25;;;16.50;92.60;;;;;;5013902;28;20316;-35
2023/06/06 02:19:01;;;;;;;11.48;8.93;;;16.50;92.80;;;;;;5012170;28;20304;-34
2023/06/06 02:21:30;;;;;;;13.38;9.25;;;16.50;93.00;;;;;;5021564;28;20211;-35
2023/06/06 02:24:01;;;;;;;12.20;9.40;;;16.50;92.90;;;;;;5013446;28;20589;-34
2023/06/06 02:26:28;;;;;;;12.38;9.55;;;16.50;93.00;;;;;;5018187;28;20321;-34
2023/06/06 02:28:58;;;;;;;11.50;8.93;;;16.50;92.80;;;;;;5020706;28;20630;-34
2023/06/06 02:31:29;;;;;;;12.10;9.30;;;16.40;92.80;;;;;;5016123;28;20367;-35
2023/06/06 02:33:57;;;;;;;10.63;8.65;;;16.40;92.90;;;;;;5020037;28;20300;-35
2023/06/06 02:36:25;;;;;;;10.25;8.88;;;16.40;93.20;;;;;;5022777;28;20777;-34
2023/06/06 02:38:52;;;;;;;14.45;9.82;;;16.40;92.80;;;;;;5008646;28;20744;-34
2023/06/06 02:41:23;;;;;;;13.90;9.70;;;16.30;92.80;;;;;;5008593;28;20205;-34
2023/06/06 02:43:50;;;;;;;11.35;9.82;;;16.30;92.80;;;;;;5009370;28;20337;-34
2023/06/06 02:46:17;;;;;;;14.85;10.68;;;16.30;92.80;;;;;;5007171;28;20319;-34
2023/06/06 02:48:47;;;;;;;15.15;10.32;;;16.30;93.50;;;;;;5007636;28;20685;-34
2023/06/06 02:51:20;;;;;;;13.98;9.25;;;16.30;93.10;;;;;;5022876;28;20255;-34
2023/06/06 02:53:50;;;;;;;11.45;9.52;;;16.20;93.20;;;;;;5022708;28;20228;-34
2023/06/06 02:56:18;;;;;;;13.30;9.82;;;16.20;93.10;;;;;;5008344;28;20259;-35
2023/06/06 02:58:52;;;;;;;13.95;10.32;;;16.20;92.90;;;;;;5011058;28;20320;-34
2023/06/06 03:01:21;;;;;;;17.00;10.15;;;16.10;93.00;;;;;;5010830;28;20313;-34
2023/06/06 03:03:48;;;;;;;14.15;10.20;;;16.10;93.40;;;;;;5006980;28;20231;-34
2023/06/06 03:06:20;;;;;;;12.73;9.75;;;16.10;93.00;;;;;;5021816;28;20243;-34
2023/06/06 03:08:55;;;;;;;15.15;10.70;;;16.00;93.00;;;;;;5022245;28;20208;-34
2023/06/06 03:11:25;;;;;;;12.25;10.27;;;16.00;93.00;;;;;;5012074;28;20608;-34
2023/06/06 03:13:52;;;;;;;14.40;10.00;;;16.00;93.20;;;;;;5012271;28;20228;-34
2023/06/06 03:16:26;;;;;;;16.00;10.57;;;16.00;93.30;;;;;;4991723;28;20284;-34
2023/06/06 03:18:58;;;;;;;16.25;10.35;;;16.00;93.20;;;;;;5011654;28;20217;-34
2023/06/06 03:21:27;;;;;;;14.30;10.10;;;16.00;93.50;;;;;;5003595;28;20230;-34
2023/06/06 03:24:01;;;;;;;15.80;10.85;;;15.90;93.30;;;;;;5013836;28;20247;-34
2023/06/06 03:26:29;;;;;;;12.48;9.50;;;15.90;93.50;;;;;;5011007;28;20217;-34
2023/06/06 03:28:57;;;;;;;13.93;10.18;;;15.90;93.10;;;;;;5011547;28;20723;-34
2023/06/06 03:31:29;;;;;;;13.57;9.90;;;15.90;93.30;;;;;;5007271;28;20211;-34
2023/06/06 03:33:57;;;;;;;15.88;10.52;;;15.80;93.30;;;;;;5011645;28;20686;-34
2023/06/06 03:36:32;;;;;;;15.35;10.70;;;15.80;94.50;;;;;;5010098;28;20310;-34
2023/06/06 03:39:03;;;;;;;15.60;10.70;;;15.80;93.60;;;;;;5008625;28;20709;-34
2023/06/06 03:41:33;;;;;;;14.18;10.27;;;15.70;94.00;;;;;;5013436;28;20823;-34
2023/06/06 03:44:05;;;;;;;14.32;10.88;;;15.60;93.30;;;;;;5007236;28;20264;-34
2023/06/06 03:46:37;;;;;;;13.70;10.65;;;15.60;93.60;;;;;;5011969;28;20272;-34
2023/06/06 03:49:08;;;;;;;15.20;10.82;;;15.60;93.30;;;;;;5011888;28;20282;-34
2023/06/06 03:51:40;;;;;;;13.30;10.38;;;15.50;93.70;;;;;;5009105;28;20205;-34
2023/06/06 03:54:07;;;;;;;12.27;10.10;;;15.50;93.80;;;;;;5001023;28;20217;-34
2023/06/06 03:56:40;;;;;;;13.13;9.60;;;15.50;93.70;;;;;;4994952;28;20290;-34
2023/06/06 03:59:11;;;;;;;16.92;10.45;;;15.50;93.80;;;;;;5011515;28;20206;-34
2023/06/06 04:01:40;;;;;;;14.35;10.43;;;15.50;94.60;;;;;;5013580;28;20333;-34
2023/06/06 04:04:15;;;;;;;14.40;10.07;;;15.50;93.80;;;;;;5010003;28;20303;-34
2023/06/06 04:06:42;;;;;;;15.82;10.82;;;15.50;93.80;;;;;;5021338;28;20220;-34
2023/06/06 04:09:13;;;;;;;15.52;10.75;;;15.40;93.60;;;;;;5015653;28;20307;-34
2023/06/06 04:11:40;;;;;;;14.88;10.55;;;15.40;93.70;;;;;;5011003;28;20947;-34
2023/06/06 04:14:12;;;;;;;13.38;9.88;;;15.40;93.90;;;;;;5011109;28;20682;-34
2023/06/06 04:16:40;;;;;;;14.50;10.77;;;15.40;93.90;;;;;;5015349;28;20243;-34
2023/06/06 04:19:10;;;;;;;14.13;10.30;;;15.40;93.80;;;;;;5007112;28;20225;-34
2023/06/06 04:21:39;;;;;;;12.30;9.70;;;15.40;93.70;;;;;;4996603;28;20565;-33
2023/06/06 04:24:07;;;;;;;14.10;10.30;;;15.40;93.50;;;;;;5010071;28;20606;-34
2023/06/06 04:26:34;;;;;;;13.57;10.18;;;15.40;93.60;;;;;;5007386;28;20288;-34
2023/06/06 04:29:04;;;;;;;14.95;10.32;;;15.40;93.70;;;;;;5014694;28;20212;-34
2023/06/06 04:31:34;;;;;;;13.60;10.63;;;15.40;93.70;;;;;;5011597;28;20216;-33
2023/06/06 04:34:06;;;;;;;14.75;10.48;;;15.40;93.80;;;;;;5010378;28;20288;-33
2023/06/06 04:36:33;;;;;;;12.60;9.70;;;15.40;93.60;;;;;;5017266;28;20214;-34
2023/06/06 04:39:06;;;;;;;14.38;9.88;;;15.40;93.90;;;;;;5018618;28;20224;-34
2023/06/06 04:41:40;;;;;;;13.55;10.10;;;15.40;94.00;;;;;;5018766;28;20201;-34
2023/06/06 04:44:15;;;;;;;13.05;9.93;;;15.40;94.10;;;;;;5016920;28;20315;-34
2023/06/06 04:46:43;;;;;;;15.75;10.40;;;15.40;93.90;;;;;;5014265;28;20247;-34
2023/06/06 04:49:13;;;;;;;14.10;10.15;;;15.40;94.70;;;;;;5008361;28;20221;-34
2023/06/06 04:51:43;;;;;;;12.70;10.00;;;15.40;94.00;;;;;;5013824;28;20741;-34
2023/06/06 04:54:19;;;;;;;14.75;10.15;;;15.40;94.00;;;;;;5012456;28;20302;-34
2023/06/06 04:56:47;;;;;;;13.35;10.30;;;15.40;94.20;;;;;;5010502;28;20328;-34
2023/06/06 04:59:22;;;;;;;13.15;10.25;;;15.30;94.10;;;;;;5000285;28;20204;-34
2023/06/06 05:01:52;;;;;;;14.48;10.25;;;15.40;94.20;;;;;;5012091;28;20316;-34
2023/06/06 05:04:23;;;;;;;14.25;10.45;;;15.40;94.20;;;;;;5012835;28;20216;-34
2023/06/06 05:06:53;;;;;;;12.80;9.38;;;15.40;94.10;;;;;;5015176;28;20221;-34
2023/06/06 05:09:25;;;;;;;15.27;10.43;;;15.40;94.20;;;;;;5005704;28;20288;-34
2023/06/06 05:11:56;;;;;;;13.48;9.93;;;15.40;94.80;;;;;;5001455;28;20891;-34
2023/06/06 05:14:25;;;;;;;14.55;10.63;;;15.40;94.30;;;;;;5007926;28;20216;-34
2023/06/06 05:16:58;;;;;;;12.82;9.80;;;15.40;94.90;;;;;;5010773;28;20642;-34
2023/06/06 05:19:25;;;;;;;13.43;10.50;;;15.50;94.50;;;;;;5012601;28;20215;-33
2023/06/06 05:21:52;;;;;;;15.35;10.30;;;15.50;94.50;;;;;;5013795;28;20306;-34
2023/06/06 05:24:24;;;;;;;13.15;10.63;;;15.50;94.40;;;;;;5013176;28;20667;-33
2023/06/06 05:26:51;;;;;;;13.65;10.23;;;15.50;94.90;;;;;;5012578;28;20225;-34
2023/06/06 05:29:24;;;;;;;13.88;10.80;;;15.50;94.90;;;;;;5016080;28;20660;-34
2023/06/06 05:31:54;;;;;;;13.85;10.60;;;15.60;95.10;;;;;;5012780;28;20223;-34
2023/06/06 05:34:24;;;;;;;13.90;10.30;;;15.60;94.60;;;;;;5013126;28;20759;-34
2023/06/06 05:36:51;;;;;;;13.65;10.30;;;15.60;94.80;;;;;;5012148;28;21799;-34
2023/06/06 05:39:22;;;;;;;17.13;11.02;;;15.60;94.70;;;;;;5010440;28;21646;-34
2023/06/06 05:41:54;;;;;;;15.65;10.93;;;15.60;95.10;;;;;;5013700;28;20208;-34
2023/06/06 05:44:25;;;;;;;13.88;10.20;;;15.60;95.20;;;;;;5012318;28;20864;-34
2023/06/06 05:47:00;;;;;;;16.25;10.55;;;15.60;94.80;;;;;;5010442;28;20319;-34
2023/06/06 05:49:30;;;;;;;13.60;10.38;;;15.50;95.00;;;;;;5011426;28;20201;-34
2023/06/06 05:52:01;;;;;;;13.63;11.00;;;15.60;94.80;;;;;;5016731;28;20569;-34
2023/06/06 05:54:30;;;;;;;14.77;9.95;;;15.60;95.00;;;;;;5020031;28;20226;-34
2023/06/06 05:57:22;;;;;;;14.68;10.38;;;15.60;94.60;;;;;;5022507;28;20702;-35
2023/06/06 05:59:51;;;;;;;17.02;11.52;;;15.60;95.60;;;;;;5025161;28;20212;-34
2023/06/06 06:02:22;;;;;;;15.98;10.85;;;15.60;95.20;;;;;;5023293;28;20212;-34
2023/06/06 06:04:56;;;;;;;14.25;10.40;;;15.70;95.00;;;;;;5025352;28;20231;-34
2023/06/06 06:07:23;;;;;;;15.73;11.13;;;15.70;95.10;;;;;;5021620;28;20347;-34
2023/06/06 06:09:55;;;;;;;16.73;11.23;;;15.70;95.30;;;;;;5025571;28;20209;-34
2023/06/06 06:12:23;;;;;;;14.52;11.02;;;15.70;95.20;;;;;;5023568;28;20200;-34
2023/06/06 06:14:53;;;;;;;15.55;11.05;;;15.70;95.40;;;;;;5020583;28;20279;-34
2023/06/06 06:17:22;;;;;;;15.43;10.45;;;15.80;95.30;;;;;;5016109;28;20208;-34
2023/06/06 06:19:52;;;;;;;15.27;10.45;;;15.80;95.40;;;;;;5025229;28;20200;-34
2023/06/06 06:22:22;;;;;;;12.68;10.48;;;15.80;95.30;;;;;;5023926;28;20598;-34
2023/06/06 06:24:50;;;;;;;15.00;9.45;;;15.80;95.50;;;;;;4996850;28;20355;-34
2023/06/06 06:27:17;;;;;;;12.27;9.18;;;15.80;95.10;;;;;;5016910;28;20224;-34
2023/06/06 06:29:47;;;;;;;14.52;10.77;;;15.90;95.10;;;;;;5015385;28;20205;-35
2023/06/06 06:32:16;;;;;;;15.45;10.55;;;16.00;95.30;;;;;;5021157;28;20715;-34
2023/06/06 06:34:46;;;;;;;13.90;10.93;;;16.00;95.60;;;;;;5019096;28;20381;-34
2023/06/06 06:37:13;;;;;;;20.25;11.90;;;16.00;95.50;;;;;;5023784;28;20292;-34
2023/06/06 06:39:41;;;;;;;18.75;11.95;;;16.00;96.10;;;;;;5021406;28;20209;-34
2023/06/06 06:42:08;;;;;;;13.00;10.02;;;16.00;96.00;;;;;;5023494;28;20786;-34
2023/06/06 06:44:36;;;;;;;14.35;10.63;;;16.00;95.60;;;;;;5021329;28;20221;-34
2023/06/06 06:47:08;;;;;;;13.45;10.43;;;16.00;95.70;;;;;;5023383;28;20220;-34
2023/06/06 06:49:41;;;;;;;13.52;10.45;;;16.00;95.80;;;;;;5021645;28;20292;-35
2023/06/06 06:52:15;;;;;;;15.75;10.50;;;16.10;95.60;;;;;;4972804;28;20240;-34
2023/06/06 06:54:58;;;;;;;12.98;10.43;;;16.20;95.60;;;;;;5011147;28;20217;-34
2023/06/06 06:57:29;;;;;;;13.50;10.57;;;16.20;95.80;;;;;;5023914;28;20217;-34
2023/06/06 07:00:00;;;;;;;16.45;10.43;;;16.30;95.50;;;;;;5020781;28;20617;-34
2023/06/06 07:02:30;;;;;;;16.58;11.35;;;16.30;95.90;;;;;;5024690;28;20691;-34
2023/06/06 07:05:02;;;;;;;16.92;11.73;;;16.20;96.10;;;;;;5020968;28;20216;-34
2023/06/06 07:07:29;;;;;;;13.68;10.95;;;16.30;95.80;;;;;;5023522;28;20252;-34
2023/06/06 07:09:56;;;;;;;13.43;10.00;;;16.30;95.80;;;;;;5022440;28;20220;-34
2023/06/06 07:12:24;;;;;;;13.43;10.52;;;16.30;96.30;;;;;;5024059;28;20208;-34
2023/06/06 07:14:56;;;;;;;16.67;11.95;;;16.40;96.00;;;;;;5020889;28;20263;-34
2023/06/06 07:17:26;;;;;;;13.23;10.43;;;16.40;95.80;;;;;;5023980;28;20700;-34
2023/06/06 07:19:58;;;;;;;16.77;11.27;;;16.50;95.60;;;;;;5021764;28;20208;-34
2023/06/06 07:22:28;;;;;;;14.43;10.65;;;16.40;96.00;;;;;;5023562;28;20806;-35
2023/06/06 07:24:55;;;;;;;16.88;11.98;;;16.50;95.90;;;;;;5014468;28;20261;-35
2023/06/06 07:27:25;;;;;;;17.52;10.50;;;16.50;96.10;;;;;;5017710;28;20562;-34
2023/06/06 07:29:55;;;;;;;15.15;10.73;;;16.50;95.80;;;;;;5022684;28;20710;-34
2023/06/06 07:32:27;;;;;;;14.43;11.00;;;16.60;96.10;;;;;;5006498;28;20540;-34
2023/06/06 07:34:55;;;;;;;14.10;10.23;;;16.60;95.90;;;;;;5016099;28;20360;-34
2023/06/06 07:37:24;;;;;;;12.15;9.90;;;16.60;95.70;;;;;;5003805;28;20212;-36
2023/06/06 07:39:51;;;;;;;17.25;11.52;;;16.70;96.10;;;;;;5006681;28;20296;-34
2023/06/06 07:42:21;;;;;;;19.67;11.27;;;16.70;96.20;;;;;;5023023;28;20201;-35
2023/06/06 07:44:51;;;;;;;16.00;10.27;;;16.70;96.00;;;;;;5013311;28;20217;-34
2023/06/06 07:47:18;;;;;;;16.33;10.57;;;16.70;95.80;;;;;;5024771;28;20569;-34
2023/06/06 07:49:47;;;;;;;17.35;10.88;;;16.80;95.90;;;;;;5008360;28;20205;-34
2023/06/06 07:52:17;;;;;;;12.38;10.10;;;16.90;95.90;;;;;;5018525;28;20271;-34
2023/06/06 07:54:46;;;;;;;12.43;9.48;;;16.90;95.90;;;;;;5021547;28;20582;-34
2023/06/06 07:57:16;;;;;;;14.55;9.80;;;17.00;95.80;;;;;;5020180;28;20205;-34
2023/06/06 07:59:46;;;;;;;16.35;11.65;;;17.10;95.80;;;;;;5007267;28;20201;-34
2023/06/06 08:02:16;;;;;;;14.40;10.65;;;17.10;96.20;;;;;;5016305;28;20217;-35
2023/06/06 08:04:45;;;;;;;15.43;10.90;;;17.20;96.30;;;;;;5021295;28;20602;-35
2023/06/06 08:07:15;;;;;;;15.40;10.48;;;17.20;96.20;;;;;;5020477;28;20201;-35
2023/06/06 08:09:45;;;;;;;15.45;10.77;;;17.30;96.20;;;;;;5002651;28;20531;-34
2023/06/06 08:12:17;;;;;;;13.82;9.77;;;17.40;96.40;;;;;;5019111;28;20393;-35
2023/06/06 08:14:44;;;;;;;14.77;11.15;;;17.40;96.20;;;;;;5020681;28;20667;-35
2023/06/06 08:17:12;;;;;;;13.27;9.98;;;17.50;96.30;;;;;;5018196;28;20227;-34
2023/06/06 08:19:41;;;;;;;17.83;11.00;;;17.50;96.10;;;;;;5018111;28;20258;-34
2023/06/06 08:22:09;;;;;;;12.73;10.95;;;17.50;96.30;;;;;;5023022;28;20274;-35
2023/06/06 08:24:37;;;;;;;13.07;10.88;;;17.60;96.40;;;;;;5004606;28;20193;-35
2023/06/06 08:27:10;;;;;;;15.00;10.55;;;17.70;96.30;;;;;;5019605;28;20225;-34
2023/06/06 08:29:40;;;;;;;13.98;10.95;;;17.80;96.60;;;;;;5020781;28;20353;-35
2023/06/06 08:32:12;;;;;;;13.93;11.13;;;17.80;96.60;;;;;;5022544;28;20291;-34
2023/06/06 08:34:39;;;;;;;16.55;9.30;;;17.90;96.50;;;;;;5020770;28;20211;-34
2023/06/06 08:37:09;;;;;;;15.40;11.52;;;18.00;96.40;;;;;;4999155;28;20332;-34
2023/06/06 08:39:39;;;;;;;15.85;10.82;;;18.10;96.70;;;;;;5015825;28;20635;-34
2023/06/06 08:42:15;;;;;;;14.20;10.00;;;18.10;96.70;;;;;;5014049;28;20213;-35
2023/06/06 08:44:51;;;;;;;17.70;11.00;;;18.20;96.60;;;;;;5019327;28;20674;-34
2023/06/06 08:47:23;;;;;;;14.02;10.57;;;18.20;96.60;;;;;;5022943;28;20275;-35
2023/06/06 08:49:52;;;;;;;13.80;11.25;;;18.20;96.70;;;;;;5019499;28;20558;-34
2023/06/06 08:52:26;;;;;;;16.20;11.23;;;18.20;97.10;;;;;;5020351;28;20703;-34
2023/06/06 08:54:58;;;;;;;13.48;10.88;;;18.30;97.00;;;;;;5016586;28;20227;-35
2023/06/06 08:57:29;;;;;;;19.45;10.88;;;18.40;96.90;;;;;;5012646;28;20205;-33
2023/06/06 08:59:56;;;;;;;13.23;10.25;;;18.40;96.90;;;;;;4995527;28;20396;-34
2023/06/06 09:02:28;;;;;;;14.15;11.18;;;18.50;96.90;;;;;;5003076;28;20282;-34
2023/06/06 09:05:01;;;;;;;18.35;12.25;;;18.60;96.90;;;;;;5019077;28;20254;-34
2023/06/06 09:07:32;;;;;;;15.32;10.40;;;18.70;96.80;;;;;;5003862;28;20619;-35
2023/06/06 09:10:01;;;;;;;13.75;10.07;;;18.80;96.80;;;;;;5018621;28;20201;-34
2023/06/06 09:12:47;;;;;;;17.30;11.57;;;18.80;96.80;;;;;;5016194;28;20499;-34
2023/06/06 09:15:17;;;;;;;15.10;10.50;;;18.90;97.20;;;;;;5018991;28;20216;-34
2023/06/06 09:17:46;;;;;;;15.45;11.00;;;18.90;97.00;;;;;;5022045;28;20275;-34
2023/06/06 09:20:17;;;;;;;14.02;10.68;;;19.00;97.10;;;;;;5018785;28;20251;-34
2023/06/06 09:22:53;;;;;;;13.02;10.02;;;19.00;97.10;;;;;;5019786;28;20691;-35
2023/06/06 09:25:27;;;;;;;13.35;10.15;;;19.10;97.00;;;;;;5020257;28;20201;-35
2023/06/06 09:28:04;;;;;;;15.68;11.32;;;19.10;97.10;;;;;;5015483;28;20218;-34
2023/06/06 09:30:35;;;;;;;13.75;10.77;;;19.20;97.20;;;;;;5017523;28;20197;-35
2023/06/06 09:33:08;;;;;;;14.25;10.57;;;19.20;97.20;;;;;;5019283;28;20214;-35
2023/06/06 09:35:46;;;;;;;17.25;11.48;;;19.30;97.10;;;;;;5020980;28;20618;-34
2023/06/06 09:38:18;;;;;;;14.30;10.43;;;19.30;97.40;;;;;;5020775;28;20693;-34
2023/06/06 09:40:50;;;;;;;18.13;10.73;;;19.40;97.20;;;;;;5018630;28;20354;-35
2023/06/06 09:43:25;;;;;;;15.77;11.00;;;19.50;97.30;;;;;;5018440;28;20336;-35
2023/06/06 09:45:58;;;;;;;13.68;10.10;;;19.50;97.30;;;;;;5018579;28;20243;-34
2023/06/06 09:48:28;;;;;;;14.95;10.10;;;19.60;97.20;;;;;;5021225;28;20223;-34
2023/06/06 09:50:59;;;;;;;12.13;10.45;;;19.70;97.40;;;;;;5018014;28;20277;-36
2023/06/06 09:53:31;;;;;;;12.25;9.27;;;19.70;97.50;;;;;;5016368;28;20282;-35
2023/06/06 09:56:03;;;;;;;16.73;10.27;;;19.80;97.40;;;;;;5013819;28;20216;-35
2023/06/06 09:58:33;;;;;;;15.13;10.52;;;19.90;97.60;;;;;;4995354;28;20308;-35
2023/06/06 10:01:01;;;;;;;13.32;8.50;;;20.00;97.50;;;;;;5016583;28;20308;-35
2023/06/06 10:03:37;;;;;;;12.18;9.25;;;20.10;97.40;;;;;;5022403;28;20675;-35
2023/06/06 10:06:06;;;;;;;13.45;9.02;;;20.20;97.50;;;;;;5013811;28;20379;-34
2023/06/06 10:08:36;;;;;;;13.93;9.52;;;20.20;97.40;;;;;;5021680;28;20725;-34
2023/06/06 10:11:08;;;;;;;11.85;8.32;;;20.30;97.50;;;;;;5023829;28;20263;-34
2023/06/06 10:13:36;;;;;;;13.50;10.43;;;20.40;97.50;;;;;;5023167;28;20221;-34
2023/06/06 10:16:04;;;;;;;12.27;9.73;;;20.40;97.50;;;;;;5023181;28;20205;-34
2023/06/06 10:18:35;;;;;;;10.80;8.80;;;20.50;97.50;;;;;;5005853;28;20216;-34
2023/06/06 10:21:05;;;;;;;12.10;9.13;;;20.60;97.60;;;;;;5017059;28;20224;-34
2023/06/06 10:23:33;;;;;;;11.73;9.60;;;20.70;97.60;;;;;;5021020;28;20209;-34
2023/06/06 10:26:05;;;;;;;12.07;8.90;;;20.80;97.60;;;;;;5020009;28;20213;-34
2023/06/06 10:28:37;;;;;;;13.40;9.02;;;20.80;97.60;;;;;;5021311;28;20857;-35
2023/06/06 10:31:10;;;;;;;12.63;9.15;;;20.90;97.60;;;;;;5025094;28;20707;-35
2023/06/06 10:33:58;;;;;;;11.20;8.40;;;21.00;97.70;;;;;;5021754;28;20742;-35
2023/06/06 10:36:36;;;;;;;10.50;8.88;;;21.10;97.80;;;;;;5020826;28;20689;-35
2023/06/06 10:39:19;;;;;;;9.27;7.70;;;21.10;97.70;;;;;;5012253;28;20228;-35
2023/06/06 10:41:56;;;;;;;11.77;8.93;;;21.20;97.80;;;;;;5004786;28;20229;-35
2023/06/06 10:44:41;;;;;;;14.73;8.85;;;21.30;97.80;;;;;;5019515;28;20244;-35
2023/06/06 10:47:21;;;;;;;10.57;8.70;;;21.30;97.70;;;;;;5015951;28;20263;-34
2023/06/06 10:50:07;;;;;;;14.43;9.63;;;21.40;97.80;;;;;;5023127;28;20224;-34
2023/06/06 10:52:41;;;;;;;10.82;8.18;;;21.50;97.80;;;;;;5020409;28;20252;-34
2023/06/06 10:55:38;;;;;;;11.38;7.68;;;21.50;97.70;;;;;;5018072;28;20213;-35
2023/06/06 10:58:16;;;;;;;11.88;7.20;;;21.60;97.80;;;;;;5004664;28;20766;-33
2023/06/06 11:00:55;;;;;;;11.63;7.38;;;21.70;97.90;;;;;;5022364;28;20208;-33
2023/06/06 11:03:39;;;;;;;11.30;8.05;;;21.80;97.90;;;;;;5021935;28;20193;-33
2023/06/06 11:06:11;;;;;;;13.95;8.27;;;21.90;98.00;;;;;;5019599;28;20650;-33
2023/06/06 11:08:44;;;;;;;10.65;8.52;;;22.00;98.00;;;;;;5008262;28;20229;-32
2023/06/06 11:11:14;;;;;;;16.27;10.13;;;22.10;97.90;;;;;;5022644;28;20710;-33
2023/06/06 11:14:04;;;;;;;13.38;8.98;;;22.10;97.70;;;;;;5022380;28;20217;-33
2023/06/06 11:16:39;;;;;;;12.38;8.90;;;22.20;97.70;;;;;;5019317;28;20349;-34
2023/06/06 11:19:15;;;;;;;11.75;7.93;;;22.20;97.90;;;;;;5017033;28;20659;-34
2023/06/06 11:21:50;;;;;;;10.00;7.93;;;22.30;97.80;;;;;;5015211;28;20232;-34
2023/06/06 11:24:21;;;;;;;15.20;8.68;;;22.40;97.90;;;;;;4987704;28;20202;-34
2023/06/06 11:26:57;;;;;;;11.15;7.57;;;22.40;97.60;;;;;;5018882;28;20636;-34
2023/06/06 11:29:27;;;;;;;9.50;7.10;;;22.50;97.70;;;;;;5023844;28;20341;-34
2023/06/06 11:31:54;;;;;;;10.50;8.15;;;22.60;97.90;;;;;;5022912;28;20205;-34
2023/06/06 11:34:22;;;;;;;11.90;8.85;;;22.60;97.70;;;;;;5023183;28;20196;-34
2023/06/06 11:36:53;;;;;;;8.93;7.35;;;22.70;97.20;;;;;;5020191;28;20232;-34
2023/06/06 11:39:21;;;;;;;8.40;6.78;;;22.70;97.40;;;;;;5022563;28;20225;-34
2023/06/06 11:41:51;;;;;;;8.20;6.43;;;22.80;97.60;;;;;;5020256;28;20216;-35
2023/06/06 11:44:29;;;;;;;12.55;6.75;;;22.80;97.70;;;;;;5005379;28;20245;-34
2023/06/06 11:46:56;;;;;;;10.65;6.70;;;22.90;97.70;;;;;;5012018;28;20208;-34
2023/06/06 11:49:28;;;;;;;10.52;7.20;;;23.00;97.70;;;;;;5021829;28;20219;-34
2023/06/06 11:51:58;;;;;;;13.32;8.13;;;23.10;97.70;;;;;;5018874;28;20272;-34
2023/06/06 11:54:29;;;;;;;9.65;7.22;;;23.20;97.80;;;;;;5021111;28;20670;-34
2023/06/06 11:57:05;;;;;;;9.05;6.90;;;23.30;97.70;;;;;;5018417;28;20229;-35
2023/06/06 11:59:35;;;;;;;10.30;7.97;;;23.30;97.80;;;;;;5005329;28;20585;-34
2023/06/06 12:02:05;;;;;;;10.15;8.15;;;23.50;97.50;;;;;;5007846;28;20629;-34
2023/06/06 12:04:35;;;;;;;12.45;8.45;;;23.50;97.00;;;;;;5004485;28;20223;-34
2023/06/06 12:07:05;;;;;;;9.98;8.00;;;23.50;97.00;;;;;;5005464;28;20633;-34
2023/06/06 12:09:35;;;;;;;8.25;6.32;;;23.60;97.20;;;;;;5022190;28;20360;-34
2023/06/06 12:12:04;;;;;;;8.48;6.55;;;23.60;97.40;;;;;;5016834;28;20205;-34
2023/06/06 12:14:34;;;;;;;12.35;7.05;;;23.70;97.50;;;;;;5020862;28;20603;-34
2023/06/06 12:17:07;;;;;;;9.88;6.75;;;23.80;97.60;;;;;;5021344;28;20255;-34
2023/06/06 12:19:36;;;;;;;17.27;6.72;;;23.80;97.20;;;;;;5020521;28;20213;-34
2023/06/06 12:22:09;;;;;;;11.25;6.35;;;23.90;97.50;;;;;;5020463;28;20208;-34
2023/06/06 12:24:39;;;;;;;7.53;5.68;;;24.00;97.50;;;;;;5017573;28;20280;-35
2023/06/06 12:27:11;;;;;;;8.30;6.40;;;24.00;97.60;;;;;;5019540;28;20211;-34
2023/06/06 12:29:50;;;;;;;10.63;6.68;;;24.10;97.70;;;;;;5002975;28;20244;-35
2023/06/06 12:32:23;;;;;;;9.20;7.28;;;24.20;97.30;;;;;;5003726;28;20697;-34
2023/06/06 12:37:35;;;;;;;10.13;6.88;;;24.20;96.80;;;;;;5021668;28;20201;-34
2023/06/06 12:40:08;;;;;;;8.60;6.30;;;24.20;96.40;;;;;;5022572;28;20201;-35
2023/06/06 12:42:36;;;;;;;9.70;6.05;;;24.20;96.90;;;;;;5019426;28;20337;-34
2023/06/06 12:45:03;;;;;;;9.77;5.72;;;24.30;96.40;;;;;;5018308;28;20212;-34
2023/06/06 12:47:33;;;;;;;7.13;5.53;;;24.30;96.50;;;;;;5022392;28;20334;-35
2023/06/06 12:50:01;;;;;;;7.78;4.80;;;24.40;96.40;;;;;;5001620;28;20286;-34
2023/06/06 12:52:30;;;;;;;9.60;5.68;;;24.50;96.90;;;;;;5018313;28;20553;-35
2023/06/06 12:55:03;;;;;;;7.10;4.65;;;24.50;97.00;;;;;;5017485;28;20735;-35
2023/06/06 12:57:34;;;;;;;6.63;5.03;;;24.60;97.30;;;;;;5019826;28;20196;-35